Time;durP1;ratioP1;P1;durP2;ratioP2;P2;SDS_P1;SDS_P2;PMS_P1;PMS_P2;Temp;Humidity;BMP_temperature;BMP_pressure;BME280_temperature;BME280_humidity;BME280_pressure;Samples;Min_cycle;Max_cycle;Signal;HPM_P1;HPM_P2
2023/09/15 00:01:32;;;;;;;5.78;3.20;;;12.00;99.90;;;;;;4861522;29;20438;-90
2023/09/15 00:04:02;;;;;;;6.07;3.22;;;12.00;99.90;;;;;;4861175;29;20443;-92
2023/09/15 00:06:28;;;;;;;6.82;3.10;;;12.30;99.90;;;;;;4860343;29;20426;-90
2023/09/15 00:08:53;;;;;;;9.00;3.35;;;11.90;99.90;;;;;;4861431;29;20926;-92
2023/09/15 00:11:19;;;;;;;6.27;3.37;;;11.90;99.90;;;;;;4861048;29;20425;-91
2023/09/15 00:13:48;;;;;;;7.67;3.20;;;12.20;99.90;;;;;;4860877;29;20411;-92
2023/09/15 00:16:14;;;;;;;10.73;4.15;;;11.70;99.90;;;;;;4861272;29;20411;-91
2023/09/15 00:18:41;;;;;;;8.77;3.45;;;12.00;99.90;;;;;;4861088;29;20423;-91
2023/09/15 00:21:09;;;;;;;9.23;3.78;;;12.10;99.90;;;;;;4861060;29;21049;-92
2023/09/15 00:23:37;;;;;;;7.57;3.80;;;11.80;99.90;;;;;;4860483;29;20439;-91
2023/09/15 00:26:03;;;;;;;7.05;3.20;;;11.90;99.90;;;;;;4861256;29;20494;-91
2023/09/15 00:28:29;;;;;;;7.30;3.75;;;12.10;99.90;;;;;;4860539;29;20440;-91
2023/09/15 00:30:58;;;;;;;9.25;3.75;;;11.80;99.90;;;;;;4860932;29;20417;-91
2023/09/15 00:33:23;;;;;;;7.20;3.50;;;11.70;99.90;;;;;;4861270;29;20839;-92
2023/09/15 00:35:49;;;;;;;9.10;4.07;;;11.80;99.90;;;;;;4860691;29;20519;-91
2023/09/15 00:38:15;;;;;;;9.02;4.22;;;12.00;99.90;;;;;;4860844;29;20415;-92
2023/09/15 00:40:40;;;;;;;7.67;3.93;;;11.90;99.90;;;;;;4860120;29;20430;-92
2023/09/15 00:43:06;;;;;;;7.22;3.67;;;11.60;99.90;;;;;;4860996;29;20427;-91
2023/09/15 00:45:32;;;;;;;8.00;3.90;;;11.50;99.90;;;;;;4860181;29;20418;-91
2023/09/15 00:47:58;;;;;;;7.13;3.83;;;11.50;99.90;;;;;;4860266;29;20426;-91
2023/09/15 00:50:26;;;;;;;9.45;4.35;;;11.50;99.90;;;;;;4860221;29;20428;-92
2023/09/15 00:53:15;;;;;;;8.07;4.40;;;11.50;99.90;;;;;;4860142;29;20423;-91
2023/09/15 00:55:42;;;;;;;9.13;4.03;;;11.50;99.90;;;;;;4860534;29;20423;-91
2023/09/15 00:58:11;;;;;;;8.65;4.05;;;11.80;99.90;;;;;;4860005;29;20585;-92
2023/09/15 01:00:40;;;;;;;5.90;3.60;;;11.20;99.90;;;;;;4860452;29;20466;-91
2023/09/15 01:03:07;;;;;;;9.23;3.92;;;11.50;99.90;;;;;;4859837;29;20419;-90
2023/09/15 01:05:33;;;;;;;8.20;3.80;;;11.70;99.90;;;;;;4860623;29;20506;-92
2023/09/15 01:07:59;;;;;;;9.38;4.05;;;11.60;99.90;;;;;;4860282;29;20417;-93
2023/09/15 01:10:25;;;;;;;7.75;3.70;;;11.40;99.90;;;;;;4859858;29;20431;-93
2023/09/15 01:12:53;;;;;;;9.55;4.88;;;11.40;99.90;;;;;;4860161;29;20419;-92
2023/09/15 01:15:21;;;;;;;7.40;3.92;;;11.70;99.90;;;;;;4859787;29;20453;-93
2023/09/15 01:18:13;;;;;;;9.02;3.90;;;11.40;99.90;;;;;;4859120;29;20415;-92
2023/09/15 01:20:57;;;;;;;9.00;4.63;;;11.60;99.90;;;;;;4859454;29;20423;-93
2023/09/15 01:23:58;;;;;;;9.48;4.45;;;11.40;99.90;;;;;;4859639;29;20446;-92
2023/09/15 01:26:44;;;;;;;9.40;4.20;;;11.40;99.90;;;;;;4860358;29;20901;-90
2023/09/15 01:29:29;;;;;;;7.82;4.60;;;11.10;99.90;;;;;;4859450;29;20415;-91
2023/09/15 01:31:57;;;;;;;8.85;4.63;;;11.30;99.90;;;;;;4859860;29;20437;-93
2023/09/15 01:34:22;;;;;;;9.57;5.00;;;11.30;99.90;;;;;;4860205;29;20422;-90
2023/09/15 01:36:48;;;;;;;9.25;4.95;;;11.00;99.90;;;;;;4859447;29;20779;-92
2023/09/15 01:39:14;;;;;;;11.00;5.20;;;11.30;99.90;;;;;;4859508;29;20782;-91
2023/09/15 01:41:39;;;;;;;10.53;5.17;;;11.30;99.90;;;;;;4859250;29;20410;-92
2023/09/15 01:44:05;;;;;;;9.10;5.20;;;11.50;99.90;;;;;;4859967;29;20442;-92
2023/09/15 01:46:31;;;;;;;11.53;5.90;;;11.40;99.90;;;;;;4859231;29;20429;-92
2023/09/15 01:48:58;;;;;;;10.68;5.53;;;11.30;99.90;;;;;;4859435;29;20419;-92
2023/09/15 01:51:25;;;;;;;12.45;6.60;;;11.20;99.90;;;;;;4859368;29;20426;-91
2023/09/15 01:53:52;;;;;;;13.00;6.25;;;11.20;99.90;;;;;;4859575;29;20422;-92
2023/09/15 01:56:18;;;;;;;11.80;6.10;;;11.60;99.90;;;;;;4859768;29;20418;-92
2023/09/15 01:58:45;;;;;;;9.98;6.05;;;11.40;99.90;;;;;;4858965;29;20715;-91
2023/09/15 02:01:11;;;;;;;10.93;6.53;;;11.20;99.90;;;;;;4859775;29;20421;-93
2023/09/15 02:03:37;;;;;;;10.77;6.25;;;11.20;99.90;;;;;;4859355;29;20447;-91
2023/09/15 02:06:04;;;;;;;12.10;6.32;;;11.40;99.90;;;;;;4859657;29;20418;-92
2023/09/15 02:08:33;;;;;;;12.30;6.35;;;11.30;99.90;;;;;;4859418;29;20799;-92
2023/09/15 02:10:59;;;;;;;12.38;6.80;;;11.10;99.90;;;;;;4860501;29;20450;-92
2023/09/15 02:13:25;;;;;;;13.75;6.20;;;11.10;99.90;;;;;;4859687;29;20541;-91
2023/09/15 02:15:54;;;;;;;10.53;6.20;;;11.20;99.90;;;;;;4859187;29;20441;-91
2023/09/15 02:18:20;;;;;;;13.77;6.93;;;11.20;99.90;;;;;;4859970;29;20866;-92
2023/09/15 02:20:56;;;;;;;11.35;6.82;;;11.00;99.90;;;;;;4858817;29;20510;-92
2023/09/15 02:23:22;;;;;;;13.07;6.73;;;10.90;99.90;;;;;;4859091;29;20449;-91
2023/09/15 02:25:48;;;;;;;10.95;6.90;;;11.30;99.90;;;;;;4859633;29;20510;-91
2023/09/15 02:28:14;;;;;;;12.18;6.90;;;11.10;99.90;;;;;;4860013;29;20543;-93
2023/09/15 02:30:39;;;;;;;10.80;6.70;;;11.40;99.90;;;;;;4863084;29;20417;-91
2023/09/15 02:33:05;;;;;;;11.38;6.10;;;11.20;99.90;;;;;;4862736;29;20823;-92
2023/09/15 02:35:31;;;;;;;11.02;6.53;;;11.30;99.90;;;;;;4863043;29;20415;-93
2023/09/15 02:37:56;;;;;;;12.03;6.27;;;11.10;99.90;;;;;;4862124;29;20415;-91
2023/09/15 02:40:24;;;;;;;12.10;7.38;;;11.00;99.90;;;;;;4863211;29;20997;-92
2023/09/15 02:42:50;;;;;;;12.77;6.30;;;11.80;99.90;;;;;;4862409;29;20425;-91
2023/09/15 02:45:16;;;;;;;12.30;6.63;;;11.30;99.90;;;;;;4862386;29;20443;-91
2023/09/15 02:47:41;;;;;;;11.90;6.13;;;10.90;99.90;;;;;;4862489;29;20419;-91
2023/09/15 02:50:08;;;;;;;10.73;6.60;;;10.80;99.90;;;;;;4862457;29;20439;-92
2023/09/15 02:52:34;;;;;;;9.13;6.30;;;10.80;99.90;;;;;;4862470;29;20427;-90
2023/09/15 02:55:01;;;;;;;10.90;6.30;;;10.80;99.90;;;;;;4862494;29;20415;-91
2023/09/15 02:57:27;;;;;;;10.73;6.25;;;11.40;99.90;;;;;;4862352;29;20415;-92
2023/09/15 02:59:53;;;;;;;12.10;6.40;;;11.10;99.90;;;;;;4861998;29;20433;-91
2023/09/15 03:02:21;;;;;;;13.20;6.50;;;11.10;99.90;;;;;;4862879;29;20798;-92
2023/09/15 03:04:47;;;;;;;10.02;6.05;;;11.00;99.90;;;;;;4862029;29;20567;-91
2023/09/15 03:07:13;;;;;;;10.35;6.30;;;11.00;99.90;;;;;;4861958;29;20497;-92
2023/09/15 03:09:39;;;;;;;10.25;6.90;;;10.70;99.90;;;;;;4862862;29;20421;-92
2023/09/15 03:12:05;;;;;;;11.43;6.82;;;10.90;99.90;;;;;;4862224;29;20478;-90
2023/09/15 03:14:31;;;;;;;12.82;6.80;;;10.70;99.90;;;;;;4862567;29;20435;-92
2023/09/15 03:16:57;;;;;;;9.63;6.40;;;10.90;99.90;;;;;;4861959;29;20997;-92
2023/09/15 03:19:23;;;;;;;11.35;6.88;;;11.30;99.90;;;;;;4862293;29;20494;-92
2023/09/15 03:21:49;;;;;;;11.75;6.45;;;10.90;99.90;;;;;;4861951;29;21164;-91
2023/09/15 03:24:15;;;;;;;9.30;6.25;;;10.90;99.90;;;;;;4861678;29;20817;-90
2023/09/15 03:26:40;;;;;;;14.17;6.90;;;10.70;99.90;;;;;;4862058;29;20496;-91
2023/09/15 03:29:06;;;;;;;10.53;6.70;;;10.80;99.90;;;;;;4861742;29;20522;-92
2023/09/15 03:31:32;;;;;;;10.73;6.40;;;10.70;99.90;;;;;;4862128;29;20945;-92
2023/09/15 03:33:58;;;;;;;14.48;6.38;;;10.80;99.90;;;;;;4861816;29;20419;-92
2023/09/15 03:36:26;;;;;;;11.00;6.40;;;10.30;99.90;;;;;;4862110;29;20941;-91
2023/09/15 03:38:52;;;;;;;11.68;6.80;;;10.60;99.90;;;;;;4861403;29;20470;-92
2023/09/15 03:41:18;;;;;;;9.55;6.45;;;10.50;99.90;;;;;;4860750;29;20415;-91
2023/09/15 03:43:43;;;;;;;10.33;6.70;;;10.80;99.90;;;;;;4861985;29;20462;-92
2023/09/15 03:46:09;;;;;;;9.70;6.07;;;10.20;99.90;;;;;;4862089;29;20423;-91
2023/09/15 03:48:35;;;;;;;12.97;6.97;;;10.70;99.90;;;;;;4862153;29;21009;-92
2023/09/15 03:51:00;;;;;;;10.27;6.47;;;10.50;99.90;;;;;;4860742;29;20421;-93
2023/09/15 03:53:26;;;;;;;10.15;6.78;;;10.60;99.90;;;;;;4861528;29;20930;-91
2023/09/15 03:55:52;;;;;;;9.93;6.65;;;10.70;99.90;;;;;;4861076;29;20484;-92
2023/09/15 03:58:18;;;;;;;10.30;6.27;;;10.80;99.90;;;;;;4861813;29;20415;-92
2023/09/15 04:00:44;;;;;;;12.77;7.00;;;10.80;99.90;;;;;;4861548;29;20439;-90
2023/09/15 04:03:11;;;;;;;10.50;6.05;;;11.10;99.90;;;;;;4861146;29;20419;-91
2023/09/15 04:05:38;;;;;;;9.60;6.50;;;10.60;99.90;;;;;;4861164;29;20498;-92
2023/09/15 04:08:04;;;;;;;10.55;6.13;;;10.90;99.90;;;;;;4860781;29;20498;-92
2023/09/15 04:10:29;;;;;;;10.05;6.20;;;10.30;99.90;;;;;;4861388;29;21114;-90
2023/09/15 04:12:55;;;;;;;9.20;6.23;;;11.00;99.90;;;;;;4860794;29;20907;-93
2023/09/15 04:15:21;;;;;;;11.68;6.63;;;10.50;99.90;;;;;;4860964;29;20423;-91
2023/09/15 04:17:46;;;;;;;9.52;6.68;;;10.60;99.90;;;;;;4860745;29;20934;-92
2023/09/15 04:20:13;;;;;;;8.60;5.80;;;10.50;99.90;;;;;;4861229;29;20419;-91
2023/09/15 04:22:40;;;;;;;9.75;5.57;;;10.40;99.90;;;;;;4860104;29;20422;-92
2023/09/15 04:25:08;;;;;;;9.93;5.80;;;10.60;99.90;;;;;;4860672;29;20998;-90
2023/09/15 04:27:34;;;;;;;10.93;6.20;;;10.30;99.90;;;;;;4861282;29;20559;-91
2023/09/15 04:30:00;;;;;;;10.67;6.47;;;10.00;99.90;;;;;;4860379;29;20430;-91
2023/09/15 04:32:26;;;;;;;9.25;6.00;;;10.30;99.90;;;;;;4861099;29;20827;-93
2023/09/15 04:34:53;;;;;;;10.07;6.32;;;10.20;99.90;;;;;;4859878;29;20449;-92
2023/09/15 04:37:19;;;;;;;7.45;6.13;;;9.90;99.90;;;;;;4860707;29;20414;-91
2023/09/15 04:39:45;;;;;;;7.47;5.83;;;10.40;99.90;;;;;;4860454;29;20790;-93
2023/09/15 04:42:12;;;;;;;11.40;6.17;;;10.10;99.90;;;;;;4860428;29;20426;-91
2023/09/15 04:44:38;;;;;;;11.32;6.43;;;10.30;99.90;;;;;;4860632;29;20891;-91
2023/09/15 04:47:04;;;;;;;10.93;6.90;;;10.20;99.90;;;;;;4860045;29;20547;-92
2023/09/15 04:49:30;;;;;;;11.33;6.77;;;10.00;99.90;;;;;;4860848;29;20483;-90
2023/09/15 04:51:56;;;;;;;10.60;6.28;;;10.40;99.90;;;;;;4859435;29;20488;-91
2023/09/15 04:54:21;;;;;;;11.55;7.18;;;9.80;99.90;;;;;;4860465;29;20514;-92
2023/09/15 04:56:47;;;;;;;12.27;6.97;;;9.90;99.90;;;;;;4859885;29;20524;-92
2023/09/15 04:59:19;;;;;;;12.97;8.00;;;10.50;99.90;;;;;;4860333;29;20430;-91
2023/09/15 05:01:48;;;;;;;12.55;8.27;;;9.90;99.90;;;;;;4860387;29;20451;-91
2023/09/15 05:04:14;;;;;;;10.20;6.53;;;9.80;99.90;;;;;;4860058;29;20510;-90
2023/09/15 05:06:41;;;;;;;9.43;6.70;;;9.80;99.90;;;;;;4860606;29;20832;-90
2023/09/15 05:09:10;;;;;;;11.32;7.43;;;9.70;99.90;;;;;;4860153;29;20590;-91
2023/09/15 05:11:37;;;;;;;12.43;8.13;;;9.70;99.90;;;;;;4860248;29;20492;-92
2023/09/15 05:14:03;;;;;;;10.02;6.63;;;9.90;99.90;;;;;;4859337;29;20415;-93
2023/09/15 05:16:29;;;;;;;10.25;7.30;;;9.60;99.90;;;;;;4860649;29;20426;-92
2023/09/15 05:18:55;;;;;;;9.83;6.53;;;9.90;99.90;;;;;;4859668;29;20455;-92
2023/09/15 05:21:21;;;;;;;8.18;6.03;;;9.50;99.90;;;;;;4860000;29;20483;-92
2023/09/15 05:23:47;;;;;;;10.48;7.22;;;9.50;99.90;;;;;;4860036;29;20451;-91
2023/09/15 05:26:12;;;;;;;8.25;6.50;;;9.40;99.90;;;;;;4860181;29;20514;-91
2023/09/15 05:28:38;;;;;;;9.77;7.50;;;9.70;99.90;;;;;;4860156;29;20418;-93
2023/09/15 05:31:04;;;;;;;11.40;7.60;;;9.50;99.90;;;;;;4859544;29;20534;-91
2023/09/15 05:33:29;;;;;;;10.52;7.05;;;10.20;99.90;;;;;;4859789;29;20411;-92
2023/09/15 05:35:56;;;;;;;9.23;6.97;;;10.20;99.90;;;;;;4859126;29;20426;-91
2023/09/15 05:38:23;;;;;;;12.93;7.88;;;9.50;99.90;;;;;;4859785;29;20509;-91
2023/09/15 05:40:49;;;;;;;11.40;7.90;;;9.60;99.90;;;;;;4859817;29;20819;-90
2023/09/15 05:43:19;;;;;;;9.93;7.15;;;9.80;99.90;;;;;;4858999;29;20411;-92
2023/09/15 05:45:45;;;;;;;10.93;7.57;;;9.60;99.90;;;;;;4859548;29;20502;-91
2023/09/15 05:48:16;;;;;;;9.27;6.97;;;10.10;99.90;;;;;;4859316;29;20411;-91
2023/09/15 05:50:42;;;;;;;10.67;7.60;;;10.40;99.90;;;;;;4859257;29;20430;-92
2023/09/15 05:53:07;;;;;;;9.47;7.40;;;10.10;99.90;;;;;;4858965;29;20414;-91
2023/09/15 05:55:33;;;;;;;11.80;7.67;;;10.20;99.90;;;;;;4859537;29;20470;-92
2023/09/15 05:57:59;;;;;;;10.45;7.78;;;9.80;99.90;;;;;;4858693;29;20419;-91
2023/09/15 06:00:25;;;;;;;10.73;7.50;;;10.40;99.90;;;;;;4859258;29;20998;-93
2023/09/15 06:02:50;;;;;;;10.33;6.93;;;10.20;99.90;;;;;;4859422;29;20419;-92
2023/09/15 06:05:19;;;;;;;9.90;6.60;;;10.50;99.90;;;;;;4862681;29;20517;-92
2023/09/15 06:07:45;;;;;;;13.05;7.20;;;10.30;99.90;;;;;;4862876;29;20435;-93
2023/09/15 06:10:11;;;;;;;9.30;6.55;;;10.70;99.90;;;;;;4863592;29;20477;-93
2023/09/15 06:12:37;;;;;;;11.40;6.57;;;10.90;99.90;;;;;;4862836;29;20429;-93
2023/09/15 06:15:03;;;;;;;9.07;6.00;;;11.10;99.90;;;;;;4862253;29;20433;-92
2023/09/15 06:17:28;;;;;;;8.00;5.50;;;10.90;99.90;;;;;;4862881;29;20524;-90
2023/09/15 06:19:54;;;;;;;8.20;5.68;;;11.10;99.90;;;;;;4862482;29;20457;-94
2023/09/15 06:22:21;;;;;;;8.20;5.10;;;11.30;99.90;;;;;;4862651;29;20415;-91
2023/09/15 06:24:47;;;;;;;9.00;5.13;;;11.30;99.90;;;;;;4862848;29;20442;-93
2023/09/15 06:27:12;;;;;;;9.27;5.10;;;11.50;99.90;;;;;;4862044;29;20415;-92
2023/09/15 06:29:38;;;;;;;8.93;4.82;;;11.80;99.90;;;;;;4863068;29;20407;-92
2023/09/15 06:32:04;;;;;;;9.33;4.80;;;11.80;99.90;;;;;;4861833;29;20426;-93
2023/09/15 06:34:30;;;;;;;9.82;4.10;;;11.80;99.90;;;;;;4862967;29;20770;-91
2023/09/15 06:36:55;;;;;;;7.75;4.40;;;12.00;99.90;;;;;;4862234;29;20461;-92
2023/09/15 06:39:23;;;;;;;9.17;4.53;;;12.30;99.90;;;;;;4862365;29;20897;-92
2023/09/15 06:41:50;;;;;;;9.57;4.18;;;12.00;99.90;;;;;;4862653;29;20425;-93
2023/09/15 06:44:15;;;;;;;8.63;4.00;;;12.60;99.90;;;;;;4861824;29;21092;-93
2023/09/15 06:46:41;;;;;;;7.73;4.17;;;12.40;99.90;;;;;;4862750;29;20463;-93
2023/09/15 06:49:08;;;;;;;7.10;4.07;;;12.70;99.90;;;;;;4862221;29;20427;-94
2023/09/15 06:51:34;;;;;;;7.18;3.80;;;12.60;99.90;;;;;;4862091;29;20505;-94
2023/09/15 06:54:00;;;;;;;6.90;3.70;;;13.00;99.90;;;;;;4862574;29;20543;-93
2023/09/15 06:56:27;;;;;;;7.32;4.05;;;13.00;99.90;;;;;;4863217;29;20423;-94
2023/09/15 06:58:53;;;;;;;5.67;3.47;;;13.00;99.90;;;;;;4863859;29;20414;-94
2023/09/15 07:01:19;;;;;;;6.83;3.67;;;13.60;99.90;;;;;;4862314;29;20425;-93
2023/09/15 07:03:44;;;;;;;7.25;3.63;;;13.40;99.90;;;;;;4862834;29;20452;-92
2023/09/15 07:06:10;;;;;;;7.18;3.63;;;13.40;99.90;;;;;;4861957;29;20423;-92
2023/09/15 07:08:36;;;;;;;7.93;3.43;;;13.70;99.90;;;;;;4862599;29;20427;-93
2023/09/15 07:11:02;;;;;;;7.37;3.50;;;13.90;99.90;;;;;;4862515;29;20419;-93
2023/09/15 07:13:28;;;;;;;6.10;3.10;;;13.70;99.90;;;;;;4863215;29;20502;-92
2023/09/15 07:15:53;;;;;;;7.28;3.30;;;13.90;99.90;;;;;;4848171;29;20411;-95
2023/09/15 07:18:19;;;;;;;5.30;3.00;;;14.20;99.90;;;;;;4863027;29;20428;-93
2023/09/15 07:20:45;;;;;;;6.65;3.50;;;14.50;99.90;;;;;;4863913;29;20483;-93
2023/09/15 07:23:10;;;;;;;6.90;3.20;;;14.30;99.90;;;;;;4862602;29;20419;-93
2023/09/15 07:25:36;;;;;;;7.43;3.50;;;14.10;99.90;;;;;;4863059;29;20443;-94
2023/09/15 07:28:03;;;;;;;7.13;3.20;;;14.70;99.90;;;;;;4862573;29;20419;-93
2023/09/15 07:30:30;;;;;;;7.53;3.55;;;14.40;99.90;;;;;;4864948;29;20460;-93
2023/09/15 07:32:56;;;;;;;6.72;3.15;;;14.50;99.90;;;;;;4863814;29;20427;-94
2023/09/15 07:35:22;;;;;;;7.82;3.38;;;15.00;99.90;;;;;;4867108;29;20422;-94
2023/09/15 07:37:48;;;;;;;8.13;3.40;;;14.70;99.90;;;;;;4864270;29;20423;-94
2023/09/15 07:40:14;;;;;;;7.20;3.85;;;14.80;99.90;;;;;;4865457;29;20449;-93
2023/09/15 07:42:40;;;;;;;7.47;3.63;;;15.20;99.90;;;;;;4864117;29;20416;-94
2023/09/15 07:45:06;;;;;;;6.57;3.22;;;15.30;99.90;;;;;;4865239;29;20431;-93
2023/09/15 07:47:33;;;;;;;5.05;2.80;;;15.20;99.90;;;;;;4864017;29;20455;-94
2023/09/15 07:49:59;;;;;;;6.28;3.10;;;15.30;99.90;;;;;;4863493;29;20421;-93
2023/09/15 07:52:31;;;;;;;6.53;3.30;;;15.10;99.90;;;;;;4867768;29;20431;-95
2023/09/15 07:54:57;;;;;;;8.68;3.80;;;16.00;99.90;;;;;;4864233;29;20502;-93
2023/09/15 07:57:25;;;;;;;7.38;3.08;;;15.30;99.90;;;;;;4864442;29;20434;-93
2023/09/15 07:59:52;;;;;;;7.07;2.97;;;15.90;99.90;;;;;;4862771;29;20898;-94
2023/09/15 08:02:26;;;;;;;5.40;3.08;;;16.00;99.90;;;;;;4863758;29;20430;-95
2023/09/15 08:04:55;;;;;;;7.85;3.05;;;15.80;99.90;;;;;;4865057;29;20509;-92
2023/09/15 08:07:44;;;;;;;7.32;3.28;;;15.70;99.90;;;;;;4867187;29;20431;-95
2023/09/15 08:10:21;;;;;;;6.25;3.10;;;16.00;99.90;;;;;;4866077;29;20426;-94
2023/09/15 08:12:52;;;;;;;6.50;3.28;;;16.80;99.90;;;;;;4866445;29;20426;-94
2023/09/15 08:15:19;;;;;;;6.95;3.00;;;16.50;99.90;;;;;;4864195;29;20419;-94
2023/09/15 08:17:54;;;;;;;7.50;3.72;;;16.30;99.90;;;;;;4864184;29;20423;-95
2023/09/15 08:20:23;;;;;;;7.78;3.05;;;16.70;99.90;;;;;;4867365;29;20438;-93
2023/09/15 08:23:12;;;;;;;7.90;3.20;;;16.70;99.90;;;;;;4867005;29;20419;-95
2023/09/15 08:25:42;;;;;;;7.38;3.22;;;16.50;99.90;;;;;;4865827;29;20965;-94
2023/09/15 08:28:08;;;;;;;6.53;3.30;;;16.90;99.90;;;;;;4865833;29;20511;-94
2023/09/15 08:30:37;;;;;;;6.65;3.25;;;16.90;99.90;;;;;;4865761;29;20444;-94
2023/09/15 08:33:03;;;;;;;6.90;3.33;;;17.10;99.90;;;;;;4863050;29;20435;-92
2023/09/15 08:35:33;;;;;;;7.93;3.10;;;16.90;99.90;;;;;;4864879;29;20415;-94
2023/09/15 08:37:59;;;;;;;6.53;3.42;;;17.00;99.90;;;;;;4860780;29;20889;-94
2023/09/15 08:40:37;;;;;;;6.65;3.13;;;17.50;99.90;;;;;;4863827;29;20511;-94
2023/09/15 08:43:06;;;;;;;5.27;3.00;;;17.40;99.90;;;;;;4861718;29;20419;-94
2023/09/15 08:45:33;;;;;;;6.93;3.67;;;17.60;99.90;;;;;;4861891;29;20506;-93
2023/09/15 08:48:05;;;;;;;7.32;3.53;;;17.60;99.90;;;;;;4861526;29;20426;-94
2023/09/15 08:50:32;;;;;;;6.97;3.22;;;17.60;99.90;;;;;;4856246;29;20432;-94
2023/09/15 08:53:03;;;;;;;6.60;3.40;;;17.50;99.90;;;;;;4857944;29;20504;-94
2023/09/15 08:55:29;;;;;;;8.83;3.53;;;17.70;99.90;;;;;;4852112;29;20429;-93
2023/09/15 08:57:57;;;;;;;8.02;3.20;;;18.00;99.90;;;;;;4861863;29;20413;-95
2023/09/15 09:00:23;;;;;;;5.97;3.10;;;18.10;99.90;;;;;;4856993;29;20504;-94
2023/09/15 09:02:52;;;;;;;8.93;2.95;;;17.80;99.90;;;;;;4863875;29;20928;-94
2023/09/15 09:05:24;;;;;;;6.60;2.78;;;18.70;99.90;;;;;;4852975;29;20448;-93
2023/09/15 09:07:55;;;;;;;7.47;3.10;;;18.40;99.90;;;;;;4862380;29;20416;-94
2023/09/15 09:10:29;;;;;;;6.35;2.80;;;18.00;99.90;;;;;;4853073;29;20425;-94
2023/09/15 09:13:24;;;;;;;7.97;3.30;;;18.20;99.90;;;;;;4863509;29;20408;-95
2023/09/15 09:16:15;;;;;;;8.13;3.85;;;18.10;99.90;;;;;;4850277;29;20408;-94
2023/09/15 09:18:53;;;;;;;5.22;2.75;;;18.50;99.90;;;;;;4842600;29;20420;-95
2023/09/15 09:21:29;;;;;;;7.38;3.00;;;18.30;99.90;;;;;;4862470;29;20428;-94
2023/09/15 09:24:04;;;;;;;6.35;3.10;;;18.60;99.90;;;;;;4861264;29;20445;-95
2023/09/15 09:26:52;;;;;;;8.02;3.17;;;18.70;99.90;;;;;;4872477;29;20838;-93
2023/09/15 09:29:26;;;;;;;5.73;3.37;;;18.90;98.80;;;;;;4860864;29;20766;-93
2023/09/15 09:31:52;;;;;;;6.35;3.30;;;18.90;99.80;;;;;;4857333;29;20461;-95
2023/09/15 09:34:27;;;;;;;5.20;2.90;;;19.40;99.90;;;;;;4852999;29;20503;-95
2023/09/15 09:36:56;;;;;;;6.38;3.20;;;19.40;95.80;;;;;;4861935;29;20434;-96
2023/09/15 09:42:24;;;;;;;6.53;3.60;;;19.00;94.20;;;;;;4866459;29;20517;-94
2023/09/15 09:45:11;;;;;;;5.65;3.10;;;19.30;96.70;;;;;;4862047;29;20444;-94
2023/09/15 09:47:37;;;;;;;6.30;3.10;;;19.70;99.90;;;;;;4852931;29;20428;-95
2023/09/15 09:50:11;;;;;;;7.40;3.80;;;19.70;93.90;;;;;;4860629;29;21008;-96
2023/09/15 09:52:50;;;;;;;6.00;3.90;;;19.90;98.20;;;;;;4864430;29;20936;-95
2023/09/15 10:06:46;;;;;;;5.90;3.63;;;22.70;60.30;;;;;;4922841;29;20437;-96
2023/09/15 10:09:15;;;;;;;6.20;3.60;;;23.60;60.00;;;;;;4891281;29;20733;-95
2023/09/15 10:11:42;;;;;;;6.70;3.92;;;24.40;56.30;;;;;;4893103;29;20409;-95
2023/09/15 10:14:46;;;;;;;6.38;3.85;;;24.70;53.30;;;;;;4890542;29;20417;-95
2023/09/15 10:25:17;;;;;;;5.23;3.30;;;26.40;50.80;;;;;;4779141;29;20486;-95
2023/09/15 10:27:45;;;;;;;6.43;3.50;;;27.10;47.10;;;;;;4791815;29;20465;-96
2023/09/15 10:30:53;;;;;;;6.13;3.97;;;27.20;45.30;;;;;;4792916;29;20422;-96
2023/09/15 10:33:53;;;;;;;6.47;3.45;;;27.30;45.00;;;;;;4796339;29;20943;-96
2023/09/15 10:36:53;;;;;;;4.80;3.10;;;27.50;44.40;;;;;;4779824;29;20429;-96
2023/09/15 10:46:03;;;;;;;5.18;2.90;;;28.10;44.00;;;;;;4892794;29;20474;-95
2023/09/15 11:03:09;;;;;;;6.57;2.93;;;28.40;42.70;;;;;;5341044;23;20494;-95
2023/09/15 11:06:14;;;;;;;5.88;2.85;;;28.40;41.20;;;;;;5078914;23;20477;-95
2023/09/15 11:14:15;;;;;;;5.37;2.20;;;28.40;42.40;;;;;;4929792;29;20453;-95
2023/09/15 11:17:02;;;;;;;4.78;2.20;;;28.40;43.90;;;;;;4887661;29;20424;-95
2023/09/15 11:19:59;;;;;;;;;;;;;;;;;;;;;
2023/09/15 11:22:39;;;;;;;4.83;2.07;;;28.30;41.90;;;;;;4896865;29;20417;-95
2023/09/15 11:25:05;;;;;;;4.72;1.70;;;28.10;42.60;;;;;;4880985;29;20437;-95
2023/09/15 11:27:33;;;;;;;3.92;1.60;;;28.10;42.90;;;;;;4885358;29;20424;-95
2023/09/15 11:30:15;;;;;;;4.05;1.38;;;28.10;40.90;;;;;;4956472;23;20480;-94
2023/09/15 11:32:41;;;;;;;4.00;1.73;;;28.20;42.20;;;;;;4879816;29;20418;-94
2023/09/15 11:35:17;;;;;;;5.20;1.83;;;28.60;42.20;;;;;;4883545;29;20428;-95
2023/09/15 11:37:42;;;;;;;3.97;1.73;;;28.60;41.40;;;;;;4882503;29;20425;-94
2023/09/15 11:40:19;;;;;;;4.20;1.52;;;28.70;41.00;;;;;;4881471;29;20500;-95
2023/09/15 11:44:16;;;;;;;;;;;;;;;;;;;;;
2023/09/15 11:47:49;;;;;;;3.63;1.40;;;29.20;40.60;;;;;;4817398;29;20413;-96
2023/09/15 11:51:01;;;;;;;4.60;1.70;;;29.20;43.10;;;;;;4796656;29;20434;-95
2023/09/15 11:53:29;;;;;;;2.95;1.30;;;29.40;41.90;;;;;;4864232;29;20512;-95
2023/09/15 11:56:47;;;;;;;3.38;1.27;;;29.40;40.10;;;;;;4893855;29;20413;-95
2023/09/15 11:59:22;;;;;;;3.83;1.33;;;29.30;38.90;;;;;;4896085;29;20493;-94
2023/09/15 12:01:57;;;;;;;4.82;1.52;;;29.20;43.10;;;;;;4889279;29;20498;-95
2023/09/15 12:04:48;;;;;;;3.58;1.20;;;29.40;40.70;;;;;;4895960;29;20956;-95
2023/09/15 12:07:37;;;;;;;4.03;1.25;;;29.70;41.20;;;;;;4889821;29;20508;-96
2023/09/15 12:10:05;;;;;;;5.50;1.48;;;29.90;39.10;;;;;;5101109;23;20405;-91
2023/09/15 12:12:31;;;;;;;3.40;1.40;;;29.80;37.50;;;;;;4897064;29;20525;-91
2023/09/15 12:15:01;;;;;;;3.28;1.13;;;29.70;42.00;;;;;;4879347;29;20461;-91
2023/09/15 12:17:30;;;;;;;3.95;1.40;;;29.70;38.60;;;;;;4895070;29;20427;-91
2023/09/15 12:20:00;;;;;;;3.97;1.50;;;29.80;40.00;;;;;;4893024;29;20436;-91
2023/09/15 12:22:39;;;;;;;4.72;1.50;;;29.90;39.60;;;;;;4894635;29;20762;-92
2023/09/15 12:25:06;;;;;;;4.07;1.33;;;30.10;39.30;;;;;;4880349;29;20538;-93
2023/09/15 12:27:34;;;;;;;3.80;1.35;;;30.20;38.50;;;;;;4880254;29;20584;-92
2023/09/15 12:30:05;;;;;;;3.90;1.23;;;30.20;38.10;;;;;;4879557;29;20903;-93
2023/09/15 12:32:32;;;;;;;3.38;1.55;;;29.90;42.10;;;;;;4879738;29;20429;-92
2023/09/15 12:34:58;;;;;;;3.55;1.45;;;29.70;39.80;;;;;;4878864;29;20427;-91
2023/09/15 12:37:29;;;;;;;3.42;1.40;;;29.60;40.30;;;;;;4895790;29;20764;-91
2023/09/15 12:39:55;;;;;;;4.30;1.23;;;29.60;40.70;;;;;;4878346;29;20431;-91
2023/09/15 12:42:20;;;;;;;3.50;1.10;;;30.00;39.60;;;;;;4895313;29;20524;-92
2023/09/15 12:44:46;;;;;;;2.80;1.10;;;30.20;41.50;;;;;;4878085;29;20443;-90
2023/09/15 12:47:12;;;;;;;3.97;1.30;;;30.60;42.20;;;;;;4879587;29;20433;-91
2023/09/15 12:49:38;;;;;;;4.82;1.23;;;30.80;38.10;;;;;;4894125;29;20456;-91
2023/09/15 12:52:04;;;;;;;3.92;1.30;;;30.90;38.20;;;;;;4894149;29;20418;-91
2023/09/15 12:54:31;;;;;;;3.90;1.45;;;30.70;36.90;;;;;;4894865;29;20425;-90
2023/09/15 12:56:57;;;;;;;3.85;1.10;;;30.40;37.40;;;;;;4878542;29;20489;-91
2023/09/15 12:59:27;;;;;;;3.38;1.10;;;30.30;38.80;;;;;;4879780;29;20469;-91
2023/09/15 13:01:56;;;;;;;3.38;1.30;;;30.40;39.30;;;;;;4878078;29;20875;-92
2023/09/15 13:04:25;;;;;;;5.13;1.70;;;30.80;38.90;;;;;;4879487;29;20437;-92
2023/09/15 13:06:54;;;;;;;3.63;1.30;;;31.20;39.30;;;;;;4878368;29;20429;-93
2023/09/15 13:09:23;;;;;;;4.10;1.35;;;31.10;35.60;;;;;;4894344;29;20424;-93
2023/09/15 13:11:48;;;;;;;4.28;1.58;;;30.60;37.60;;;;;;4878917;29;20521;-91
2023/09/15 13:14:14;;;;;;;3.83;1.10;;;30.20;38.20;;;;;;4894400;29;20968;-92
2023/09/15 13:16:40;;;;;;;3.90;0.97;;;29.80;40.10;;;;;;4879534;29;20416;-93
2023/09/15 13:19:05;;;;;;;2.90;1.27;;;29.30;41.20;;;;;;4877663;29;20425;-91
2023/09/15 13:21:33;;;;;;;4.73;1.53;;;29.30;40.70;;;;;;4879379;29;20409;-91
2023/09/15 13:24:03;;;;;;;4.78;1.65;;;28.90;40.60;;;;;;4878120;29;20437;-92
2023/09/15 13:26:29;;;;;;;4.57;1.55;;;28.00;38.80;;;;;;4878567;29;20515;-91
2023/09/15 13:28:55;;;;;;;3.38;1.10;;;27.80;44.90;;;;;;4895217;29;20488;-93
2023/09/15 13:31:21;;;;;;;3.38;1.20;;;28.00;41.90;;;;;;4878081;29;20439;-91
2023/09/15 13:33:47;;;;;;;4.17;1.30;;;28.00;42.00;;;;;;4878990;29;20905;-91
2023/09/15 13:36:13;;;;;;;3.05;0.93;;;27.70;42.10;;;;;;4893248;29;20421;-92
2023/09/15 13:38:40;;;;;;;3.28;1.20;;;27.10;42.60;;;;;;4895022;29;21076;-92
2023/09/15 13:41:05;;;;;;;5.32;1.50;;;26.50;42.90;;;;;;4877514;29;20425;-92
2023/09/15 13:43:32;;;;;;;5.35;1.42;;;26.00;44.10;;;;;;4878985;29;20424;-91
2023/09/15 13:45:57;;;;;;;4.10;1.33;;;25.60;47.70;;;;;;4893744;29;20433;-91
2023/09/15 13:48:23;;;;;;;4.30;1.30;;;25.40;45.60;;;;;;4878010;29;20504;-92
2023/09/15 13:50:50;;;;;;;3.80;1.30;;;24.90;46.50;;;;;;4879275;29;20413;-91